DAV weather

Enrique Malek International Airport
David, Chiriquí Province, Panama

Public forecast

Using degrees Celsius for public forecast. Weather courtesy of forecast.io.

Current aviation weather report (METAR) for Enrique Malek International Airport

Retrieved 2019/10/16 18:00 UTC (48 minutes ago):

MPDA 161800Z 19006KT 9999 SCT015CB 30/24 Q1011

Aviation forecast (TAF) for Enrique Malek International Airport

Retrieved 2019/10/16 18:33 UTC (15 minutes ago):

TAF TAF MPDA 161700Z 1618/1706 21006KT 9999 SCT018 SCT090 PROB30 1622/1701 6000 TSRA SCT014CB BKN080 TEMPO 1702/1704 00000KT